Aviation Digital Data Service (ADDS)

Output produced by METARs form (2222 UTC 10 December 2016)
found at http://www.aviationweather.gov/adds/metars/
 
KDEN 102059Z 1021/1124 14007KT P6SM FEW090 SCT150 BKN200 
     FM110300 21008KT P6SM SCT090 BKN180 
     FM110500 24010KT P6SM SCT080 BKN150 
     FM110700 35008KT P6SM BKN080 OVC120 
     PROB30 1108/1112 4SM -SN BKN050 
     FM111200 04008KT P6SM SCT060 BKN120 
     FM111600 08008KT P6SM SCT080 
     FM111800 12010KT P6SM FEW080